createdAt,value
2018-03-03T00:01:06.769Z,59.00
2018-03-03T00:03:34.937Z,60.40
2018-03-03T00:06:03.331Z,62.75
2018-03-03T00:08:30.905Z,57.38
2018-03-03T00:10:59.276Z,58.08
2018-03-03T00:13:26.872Z,60.58
2018-03-03T00:15:54.467Z,59.15
2018-03-03T00:18:22.299Z,57.13
2018-03-03T00:20:50.125Z,72.47
2018-03-03T00:23:17.880Z,57.60
2018-03-03T00:25:46.216Z,85.00
2018-03-03T00:28:13.834Z,70.35
2018-03-03T00:30:42.150Z,68.70
2018-03-03T00:33:09.760Z,67.95
2018-03-03T00:35:37.307Z,73.95
2018-03-03T00:38:04.884Z,60.85
2018-03-03T00:40:33.221Z,63.45
2018-03-03T00:43:00.766Z,57.40
2018-03-03T00:45:29.244Z,65.43
2018-03-03T00:47:57.921Z,63.70
2018-03-03T00:50:25.474Z,67.50
2018-03-03T00:52:53.054Z,58.90
2018-03-03T00:55:20.596Z,67.03
2018-03-03T00:57:48.748Z,63.97
2018-03-03T01:00:17.103Z,79.05
2018-03-03T01:02:44.720Z,73.30
2018-03-03T01:05:12.280Z,65.45
2018-03-03T01:07:39.877Z,60.60
2018-03-03T01:10:07.474Z,64.97
2018-03-03T01:12:35.042Z,65.72
2018-03-03T01:15:02.648Z,58.28
2018-03-03T01:17:30.198Z,67.37
2018-03-03T01:19:58.679Z,62.55
2018-03-03T01:22:26.198Z,63.10
2018-03-03T01:24:53.756Z,77.10
2018-03-03T01:27:21.301Z,68.68
2018-03-03T01:29:49.664Z,62.08
2018-03-03T01:32:17.191Z,66.68
2018-03-03T01:34:45.420Z,66.93
2018-03-03T01:37:13.704Z,59.55
2018-03-03T01:39:42.031Z,64.00
2018-03-03T01:42:10.491Z,63.20
2018-03-03T01:44:38.021Z,63.38
2018-03-03T01:47:05.592Z,74.80
2018-03-03T01:49:33.379Z,69.75
2018-03-03T01:52:01.116Z,66.47
2018-03-03T01:54:29.420Z,69.15
2018-03-03T01:56:56.973Z,67.90
2018-03-03T01:59:24.560Z,70.28
2018-03-03T02:01:52.155Z,65.87
2018-03-03T02:04:20.445Z,59.05
2018-03-03T02:06:49.738Z,52.78
2018-03-03T02:09:18.031Z,63.08
2018-03-03T02:11:45.614Z,73.15
2018-03-03T02:14:13.871Z,61.58
2018-03-03T02:16:41.430Z,68.78
2018-03-03T02:19:09.052Z,69.07
2018-03-03T02:21:37.420Z,59.80
2018-03-03T02:24:05.010Z,67.07
2018-03-03T02:26:33.353Z,58.85
2018-03-03T02:29:00.959Z,55.70
2018-03-03T02:31:29.304Z,61.00
2018-03-03T02:33:56.869Z,60.95
2018-03-03T02:36:24.431Z,60.97
2018-03-03T02:38:52.897Z,61.10
2018-03-03T02:41:20.492Z,56.65
2018-03-03T02:43:48.027Z,62.20
2018-03-03T02:46:15.585Z,67.45
2018-03-03T02:48:43.138Z,59.60
2018-03-03T02:51:10.708Z,63.72
2018-03-03T02:53:38.257Z,71.43
2018-03-03T02:56:05.872Z,62.97
2018-03-03T02:58:33.452Z,66.90
2018-03-03T03:01:01.039Z,71.53
2018-03-03T03:03:29.350Z,64.40
2018-03-03T03:05:57.674Z,74.45
2018-03-03T03:08:25.265Z,67.40
2018-03-03T03:10:53.402Z,63.08
2018-03-03T03:13:20.963Z,73.20
2018-03-03T03:15:48.685Z,68.20
2018-03-03T03:18:17.005Z,70.72
2018-03-03T03:20:44.606Z,67.62
2018-03-03T03:23:12.122Z,70.60
2018-03-03T03:25:39.717Z,79.97
2018-03-03T03:28:07.529Z,71.32
2018-03-03T03:30:35.164Z,70.65
2018-03-03T03:33:03.796Z,58.75
2018-03-03T03:35:31.332Z,69.40
2018-03-03T03:37:59.763Z,70.37
2018-03-03T03:40:27.340Z,69.57
2018-03-03T03:42:54.875Z,63.15
2018-03-03T03:45:23.419Z,78.10
2018-03-03T03:47:51.058Z,67.62
2018-03-03T03:50:19.359Z,57.70
2018-03-03T03:52:47.779Z,70.65
2018-03-03T03:55:15.374Z,67.62
2018-03-03T03:57:45.348Z,67.47
2018-03-03T04:00:12.930Z,65.82
2018-03-03T04:02:40.458Z,73.18
2018-03-03T04:05:08.015Z,65.47
2018-03-03T04:07:35.588Z,77.60
2018-03-03T04:10:03.125Z,78.47
2018-03-03T04:12:30.707Z,63.83
2018-03-03T04:14:58.724Z,82.18
2018-03-03T04:17:27.058Z,58.58
2018-03-03T04:19:54.619Z,72.00
2018-03-03T04:22:22.193Z,62.03
2018-03-03T04:24:49.757Z,77.28
2018-03-03T04:27:17.311Z,64.28
2018-03-03T04:29:45.164Z,67.87
2018-03-03T04:32:12.737Z,62.80
2018-03-03T04:34:40.278Z,66.32
2018-03-03T04:37:07.837Z,62.15
2018-03-03T04:39:36.161Z,70.00
2018-03-03T04:42:04.450Z,69.10
2018-03-03T04:44:32.770Z,79.55
2018-03-03T04:47:01.014Z,79.40
2018-03-03T04:49:28.587Z,72.70
2018-03-03T04:51:56.123Z,74.53
2018-03-03T04:54:23.670Z,71.15
2018-03-03T04:56:51.977Z,69.75
2018-03-03T05:02:16.236Z,70.15
2018-03-03T05:04:49.380Z,65.03
2018-03-03T05:07:17.874Z,90.72
2018-03-03T05:09:45.473Z,69.35
2018-03-03T05:12:15.653Z,65.18
2018-03-03T05:14:44.208Z,70.72
2018-03-03T05:17:17.509Z,75.55
2018-03-03T05:19:50.841Z,61.35
2018-03-03T05:22:24.043Z,70.07
2018-03-03T05:27:54.781Z,70.70
2018-03-03T05:30:32.976Z,67.78
2018-03-03T05:33:06.342Z,70.75
2018-03-03T05:35:40.417Z,69.68
2018-03-03T05:41:10.195Z,69.85
2018-03-03T05:43:42.105Z,63.75
2018-03-03T05:46:14.159Z,67.35
2018-03-03T05:48:42.883Z,75.28
2018-03-03T05:54:17.552Z,69.20
2018-03-03T05:57:00.842Z,76.00
2018-03-03T06:02:54.611Z,74.07
2018-03-03T06:05:24.971Z,86.57
2018-03-03T06:07:56.382Z,73.55
2018-03-03T06:10:27.635Z,69.82
2018-03-03T06:12:55.182Z,70.85
2018-03-03T06:15:22.758Z,72.20
2018-03-03T06:17:50.339Z,81.25
2018-03-03T06:20:17.857Z,66.25
2018-03-03T06:22:45.482Z,81.37
2018-03-03T06:25:13.037Z,71.00
2018-03-03T06:27:40.555Z,66.47
2018-03-03T06:30:08.085Z,73.65
2018-03-03T06:32:35.714Z,75.75
2018-03-03T06:35:03.271Z,83.20
2018-03-03T06:37:31.557Z,84.35
2018-03-03T06:39:59.106Z,76.22
2018-03-03T06:42:26.654Z,68.12
2018-03-03T06:44:54.178Z,78.50
2018-03-03T06:47:21.741Z,71.85
2018-03-03T06:49:49.305Z,69.43
2018-03-03T06:52:16.855Z,89.97
2018-03-03T06:54:44.432Z,74.55
2018-03-03T06:57:11.995Z,78.97
2018-03-03T06:59:39.558Z,75.95
2018-03-03T07:02:07.126Z,75.43
2018-03-03T07:04:34.682Z,66.85
2018-03-03T07:07:02.289Z,96.12
2018-03-03T07:09:30.595Z,74.30
2018-03-03T07:11:58.178Z,79.45
2018-03-03T07:14:28.481Z,77.97
2018-03-03T07:16:56.061Z,87.32
2018-03-03T07:19:24.076Z,78.57
2018-03-03T07:21:51.684Z,69.87
2018-03-03T07:24:19.259Z,79.68
2018-03-03T07:26:46.819Z,77.20
2018-03-03T07:29:14.415Z,69.47
2018-03-03T07:31:41.986Z,75.40
2018-03-03T07:34:09.523Z,90.10
2018-03-03T07:36:37.146Z,97.07
2018-03-03T07:39:04.714Z,72.60
2018-03-03T07:41:33.023Z,74.00
2018-03-03T07:44:00.592Z,77.32
2018-03-03T07:46:28.913Z,80.72
2018-03-03T07:48:56.528Z,73.45
2018-03-03T07:51:24.865Z,81.32
2018-03-03T07:53:52.424Z,69.45
2018-03-03T07:56:20.789Z,69.30
2018-03-03T07:58:49.278Z,74.87
2018-03-03T08:01:17.148Z,72.80
2018-03-03T08:03:44.736Z,77.72
2018-03-03T08:06:12.321Z,75.90
2018-03-03T08:08:41.707Z,72.28
2018-03-03T08:11:09.331Z,74.25
2018-03-03T08:13:36.874Z,60.70
2018-03-03T08:16:04.429Z,72.68
2018-03-03T08:18:32.051Z,78.37
2018-03-03T08:21:00.370Z,82.20
2018-03-03T08:23:27.954Z,72.55
2018-03-03T08:25:55.548Z,82.18
2018-03-03T08:28:23.923Z,71.93
2018-03-03T08:30:51.560Z,72.90
2018-03-03T08:33:19.127Z,68.62
2018-03-03T08:35:47.625Z,74.22
2018-03-03T08:38:15.277Z,75.30
2018-03-03T08:40:42.834Z,64.20
2018-03-03T08:43:10.475Z,73.75
2018-03-03T08:45:38.058Z,75.18
2018-03-03T08:48:05.689Z,67.80
2018-03-03T08:50:33.284Z,71.10
2018-03-03T08:53:00.795Z,78.35
2018-03-03T08:55:28.343Z,64.05
2018-03-03T08:57:56.484Z,82.35
2018-03-03T09:00:24.049Z,77.50
2018-03-03T09:02:52.441Z,75.05
2018-03-03T09:05:19.982Z,75.05
2018-03-03T09:07:48.307Z,74.57
2018-03-03T09:10:15.981Z,80.18
2018-03-03T09:12:43.529Z,67.93
2018-03-03T09:15:11.058Z,61.95
2018-03-03T09:17:40.488Z,77.30
2018-03-03T09:20:08.119Z,70.87
2018-03-03T09:22:35.675Z,75.35
2018-03-03T09:25:03.209Z,73.40
2018-03-03T09:27:30.766Z,66.78
2018-03-03T09:29:58.918Z,64.20
2018-03-03T09:32:26.475Z,73.35
2018-03-03T09:34:53.997Z,74.68
2018-03-03T09:37:21.554Z,77.72
2018-03-03T09:39:49.882Z,83.47
2018-03-03T09:42:17.469Z,80.97
2018-03-03T09:44:45.057Z,73.18
2018-03-03T09:47:13.362Z,82.97
2018-03-03T09:49:41.027Z,63.22
2018-03-03T09:52:08.637Z,85.57
2018-03-03T09:54:36.556Z,66.22
2018-03-03T09:57:04.286Z,75.03
2018-03-03T09:59:31.920Z,65.45
2018-03-03T10:02:06.292Z,59.67
2018-03-03T10:04:27.103Z,78.55
2018-03-03T10:06:54.633Z,68.05
2018-03-03T10:09:23.585Z,73.18
2018-03-03T10:11:51.231Z,80.87
2018-03-03T10:14:18.762Z,79.82
2018-03-03T10:16:47.169Z,83.25
2018-03-03T10:19:14.785Z,83.85
2018-03-03T10:21:43.099Z,71.55
2018-03-03T10:24:10.672Z,66.45
2018-03-03T10:26:39.043Z,77.90
2018-03-03T10:29:06.597Z,83.93
2018-03-03T10:31:34.161Z,75.72
2018-03-03T10:34:01.772Z,74.12
2018-03-03T10:36:30.104Z,61.88
2018-03-03T10:38:57.709Z,85.72
2018-03-03T10:41:26.049Z,76.37
2018-03-03T10:43:53.641Z,81.80
2018-03-03T10:46:21.201Z,73.30
2018-03-03T10:48:48.761Z,70.20
2018-03-03T10:51:16.289Z,67.20
2018-03-03T10:53:43.952Z,75.93
2018-03-03T10:56:12.695Z,60.10
2018-03-03T10:58:41.327Z,80.62
2018-03-03T11:01:08.854Z,76.90
2018-03-03T11:03:36.394Z,56.90
2018-03-03T11:06:03.950Z,74.10
2018-03-03T11:08:32.273Z,72.28
2018-03-03T11:10:59.797Z,82.45
2018-03-03T11:13:27.346Z,63.33
2018-03-03T11:15:55.396Z,75.72
2018-03-03T11:18:23.090Z,66.10
2018-03-03T11:20:50.611Z,77.87
2018-03-03T11:23:18.281Z,76.93
2018-03-03T11:25:45.962Z,63.00
2018-03-03T11:28:13.618Z,75.78
2018-03-03T11:30:42.039Z,75.72
2018-03-03T11:33:09.624Z,73.43
2018-03-03T11:35:37.181Z,84.50
2018-03-03T11:38:04.778Z,60.33
2018-03-03T11:40:33.130Z,69.00
2018-03-03T11:42:59.989Z,50.58
2018-03-03T11:45:27.906Z,80.25
2018-03-03T11:47:55.589Z,74.60
2018-03-03T11:50:23.138Z,74.55
2018-03-03T11:52:51.595Z,73.68
2018-03-03T11:55:19.228Z,70.35
2018-03-03T11:57:46.848Z,70.87
2018-03-03T12:00:14.436Z,68.95
2018-03-03T12:02:42.085Z,81.35
2018-03-03T12:05:09.601Z,71.45
2018-03-03T12:07:37.117Z,78.28
2018-03-03T12:10:04.695Z,75.12
2018-03-03T12:12:33.047Z,87.72
2018-03-03T12:15:01.292Z,77.18
2018-03-03T12:17:28.872Z,74.57
2018-03-03T12:19:56.402Z,72.07
2018-03-03T12:22:23.948Z,80.72
2018-03-03T12:24:52.266Z,76.20
2018-03-03T12:27:19.840Z,72.95
2018-03-03T12:29:47.434Z,72.45
2018-03-03T12:32:16.246Z,62.70
2018-03-03T12:34:43.827Z,72.68
2018-03-03T12:37:11.494Z,64.30
2018-03-03T12:39:39.803Z,72.03
2018-03-03T12:42:07.585Z,65.47
2018-03-03T12:44:35.927Z,65.97
2018-03-03T12:47:03.459Z,73.32
2018-03-03T12:49:31.782Z,65.18
2018-03-03T12:51:59.572Z,59.50
2018-03-03T12:54:27.888Z,80.05
2018-03-03T12:56:56.412Z,71.22
2018-03-03T12:59:23.948Z,80.05
2018-03-03T13:01:51.556Z,71.22
2018-03-03T13:04:19.504Z,73.07
2018-03-03T13:06:47.839Z,71.35
2018-03-03T13:09:15.491Z,74.68
2018-03-03T13:11:42.988Z,71.12
2018-03-03T13:14:11.813Z,68.80
2018-03-03T13:16:39.366Z,68.50
2018-03-03T13:19:08.251Z,72.62
2018-03-03T13:21:37.978Z,70.53
2018-03-03T13:24:05.507Z,66.25
2018-03-03T13:26:33.840Z,73.85
2018-03-03T13:29:03.022Z,72.10
2018-03-03T13:31:30.591Z,76.82
2018-03-03T13:33:58.878Z,67.05
2018-03-03T13:36:26.386Z,76.40
2018-03-03T13:38:54.715Z,62.53
2018-03-03T13:41:22.274Z,75.53
2018-03-03T13:43:49.810Z,65.78
2018-03-03T13:46:17.385Z,70.87
2018-03-03T13:48:45.540Z,70.37
2018-03-03T13:51:13.064Z,78.40
2018-03-03T13:53:40.620Z,76.55
2018-03-03T13:56:08.173Z,71.35
2018-03-03T13:58:36.536Z,71.53
2018-03-03T14:01:04.165Z,76.28
2018-03-03T14:03:32.479Z,79.35
2018-03-03T14:05:59.996Z,67.75
2018-03-03T14:08:27.591Z,87.32
2018-03-03T14:10:55.251Z,85.05
2018-03-03T14:13:22.778Z,70.82
2018-03-03T14:15:50.465Z,82.95
2018-03-03T14:18:18.048Z,81.00
2018-03-03T14:20:47.123Z,85.82
2018-03-03T14:23:14.684Z,76.62
2018-03-03T14:25:42.314Z,85.22
2018-03-03T14:28:09.900Z,76.28
2018-03-03T14:30:38.246Z,78.10
2018-03-03T14:33:05.774Z,82.90
2018-03-03T14:35:33.359Z,71.32
2018-03-03T14:38:02.540Z,81.28
2018-03-03T14:40:31.599Z,86.03
2018-03-03T14:42:59.244Z,78.57
2018-03-03T14:45:26.846Z,84.47
2018-03-03T14:47:54.460Z,77.62
2018-03-03T14:50:22.021Z,76.95
2018-03-03T14:52:49.695Z,81.00
2018-03-03T14:55:18.751Z,78.25
2018-03-03T14:57:46.468Z,87.82
2018-03-03T15:00:14.170Z,79.32
2018-03-03T15:02:42.648Z,74.10
2018-03-03T15:05:10.954Z,80.43
2018-03-03T15:07:38.512Z,82.75
2018-03-03T15:10:06.949Z,71.25
2018-03-03T15:12:34.492Z,88.40
2018-03-03T15:15:02.058Z,84.78
2018-03-03T15:17:29.584Z,89.50
2018-03-03T15:19:57.174Z,80.00
2018-03-03T15:22:25.689Z,83.10
2018-03-03T15:24:54.013Z,90.40
2018-03-03T15:27:21.573Z,88.35
2018-03-03T15:29:49.159Z,86.93
2018-03-03T15:32:16.802Z,86.45
2018-03-03T15:34:44.373Z,94.80
2018-03-03T15:37:11.922Z,85.65
2018-03-03T15:39:39.466Z,80.55
2018-03-03T15:42:07.015Z,81.97
2018-03-03T15:44:35.666Z,93.50
2018-03-03T15:47:03.443Z,94.15
2018-03-03T15:49:31.053Z,101.18
2018-03-03T15:51:58.578Z,86.05
2018-03-03T15:54:26.158Z,87.82
2018-03-03T15:56:53.713Z,97.70
2018-03-03T15:59:21.280Z,83.90
2018-03-03T16:01:48.841Z,99.28
2018-03-03T16:04:16.374Z,89.37
2018-03-03T16:06:43.919Z,95.43
2018-03-03T16:09:11.997Z,93.15
2018-03-03T16:11:39.792Z,95.22
2018-03-03T16:14:07.396Z,90.82
2018-03-03T16:16:35.300Z,90.03
2018-03-03T16:19:02.866Z,85.07
2018-03-03T16:21:30.416Z,92.90
2018-03-03T16:23:57.990Z,95.18
2018-03-03T16:26:25.548Z,100.55
2018-03-03T16:28:53.172Z,97.70
2018-03-03T16:31:21.641Z,113.90
2018-03-03T16:33:49.802Z,104.50
2018-03-03T16:36:17.596Z,124.18
2018-03-03T16:38:47.358Z,100.10
2018-03-03T16:41:14.972Z,97.70
2018-03-03T16:43:43.359Z,99.47
2018-03-03T16:46:10.895Z,90.00
2018-03-03T16:48:39.238Z,96.60
2018-03-03T16:51:06.804Z,93.93
2018-03-03T16:53:35.979Z,98.97
2018-03-03T16:56:03.608Z,106.12
2018-03-03T16:58:31.947Z,95.35
2018-03-03T17:00:59.548Z,103.32
2018-03-03T17:03:27.219Z,98.90
2018-03-03T17:05:55.545Z,99.35
2018-03-03T17:08:23.248Z,95.12
2018-03-03T17:10:50.826Z,90.87
2018-03-03T17:13:18.369Z,97.62
2018-03-03T17:15:46.703Z,95.80
2018-03-03T17:18:14.610Z,99.87
2018-03-03T17:20:42.967Z,117.90
2018-03-03T17:23:10.602Z,92.75
2018-03-03T17:25:38.160Z,97.03
2018-03-03T17:28:05.811Z,93.65
2018-03-03T17:30:33.349Z,107.22
2018-03-03T17:33:00.973Z,110.60
2018-03-03T17:35:28.642Z,94.82
2018-03-03T17:37:56.375Z,105.30
2018-03-03T17:40:24.716Z,88.55
2018-03-03T17:42:52.278Z,98.90
2018-03-03T17:45:19.844Z,97.93
2018-03-03T17:47:47.418Z,95.32
2018-03-03T17:50:15.002Z,107.75
2018-03-03T17:52:42.617Z,111.62
2018-03-03T17:55:10.261Z,86.12
2018-03-03T17:57:37.830Z,100.12
2018-03-03T18:00:06.248Z,99.30
2018-03-03T18:02:33.931Z,100.68
2018-03-03T18:05:01.563Z,94.25
2018-03-03T18:07:29.089Z,93.72
2018-03-03T18:09:56.646Z,97.53
2018-03-03T18:12:25.143Z,104.78
2018-03-03T18:14:52.666Z,92.57
2018-03-03T18:17:20.247Z,110.43
2018-03-03T18:19:47.770Z,108.05
2018-03-03T18:22:15.547Z,92.65
2018-03-03T18:24:44.637Z,101.75
2018-03-03T18:27:12.244Z,105.37
2018-03-03T18:29:39.816Z,109.57
2018-03-03T18:32:07.359Z,101.07
2018-03-03T18:34:35.016Z,91.43
2018-03-03T18:37:02.563Z,120.50
2018-03-03T18:39:31.868Z,103.55
2018-03-03T18:41:59.436Z,105.93
2018-03-03T18:44:26.991Z,112.65
2018-03-03T18:46:54.560Z,100.30
2018-03-03T18:49:22.145Z,103.20
2018-03-03T18:51:49.697Z,101.10
2018-03-03T18:54:17.235Z,106.50
2018-03-03T18:56:44.789Z,102.80
2018-03-03T18:59:12.376Z,115.72
2018-03-03T19:01:39.923Z,100.10
2018-03-03T19:04:07.490Z,108.65
2018-03-03T19:06:35.061Z,115.60
2018-03-03T19:09:02.699Z,102.07
2018-03-03T19:11:30.272Z,94.28
2018-03-03T19:13:57.844Z,104.68
2018-03-03T19:16:25.390Z,99.47
2018-03-03T19:18:52.934Z,108.57
2018-03-03T19:21:20.481Z,102.62
2018-03-03T19:23:48.824Z,98.72
2018-03-03T19:26:16.529Z,99.60
2018-03-03T19:28:44.073Z,100.62
2018-03-03T19:31:12.410Z,114.75
2018-03-03T19:33:40.016Z,101.03
2018-03-03T19:36:07.569Z,103.57
2018-03-03T19:38:35.103Z,113.28
2018-03-03T19:41:02.812Z,96.45
2018-03-03T19:43:30.362Z,98.80
2018-03-03T19:45:58.091Z,108.75
2018-03-03T19:48:25.719Z,102.32
2018-03-03T19:50:53.442Z,106.75
2018-03-03T19:53:21.769Z,114.75
2018-03-03T19:55:49.310Z,105.95
2018-03-03T19:58:16.889Z,106.25
2018-03-03T20:00:44.466Z,118.37
2018-03-03T20:03:12.014Z,99.40
2018-03-03T20:05:39.558Z,115.60
2018-03-03T20:08:07.159Z,105.95
2018-03-03T20:10:34.723Z,119.30
2018-03-03T20:13:02.287Z,119.95
2018-03-03T20:15:29.815Z,128.75
2018-03-03T20:17:57.344Z,119.10
2018-03-03T20:20:24.922Z,106.63
2018-03-03T20:22:52.442Z,108.22
2018-03-03T20:25:20.864Z,104.82
2018-03-03T20:27:48.397Z,103.22
2018-03-03T20:30:16.040Z,110.40
2018-03-03T20:32:43.703Z,109.15
2018-03-03T20:35:11.265Z,109.72
2018-03-03T20:37:40.662Z,110.57
2018-03-03T20:40:08.231Z,110.03
2018-03-03T20:42:35.795Z,115.35
2018-03-03T20:45:04.174Z,111.95
2018-03-03T20:47:32.302Z,113.40
2018-03-03T20:49:59.893Z,110.95
2018-03-03T20:52:28.236Z,115.80
2018-03-03T20:57:29.817Z,106.78
2018-03-03T20:59:57.704Z,108.68
2018-03-03T21:02:25.286Z,116.03
2018-03-03T21:04:53.102Z,117.05
2018-03-03T21:07:20.650Z,102.22
2018-03-03T21:09:48.208Z,113.32
2018-03-03T21:15:10.758Z,124.28
2018-03-03T21:17:39.073Z,110.15
2018-03-03T21:20:09.058Z,112.80
2018-03-03T21:22:36.618Z,106.03
2018-03-03T21:25:04.171Z,116.35
2018-03-03T21:27:32.479Z,118.78
2018-03-03T21:30:00.061Z,104.68
2018-03-03T21:32:27.628Z,105.35
2018-03-03T21:34:55.976Z,122.72
2018-03-03T21:37:23.667Z,105.03
2018-03-03T21:39:51.270Z,102.55
2018-03-03T21:42:18.874Z,104.22
2018-03-03T21:44:46.413Z,107.65
2018-03-03T21:47:13.956Z,110.72
2018-03-03T21:49:41.509Z,110.18
2018-03-03T21:52:09.187Z,106.70
2018-03-03T21:54:36.757Z,114.93
2018-03-03T21:57:04.310Z,130.63
2018-03-03T21:59:32.648Z,114.88
2018-03-03T22:02:00.958Z,113.57
2018-03-03T22:04:28.550Z,123.68
2018-03-03T22:06:56.892Z,106.70
2018-03-03T22:09:24.461Z,105.05
2018-03-03T22:11:53.578Z,127.32
2018-03-03T22:14:21.143Z,119.72
2018-03-03T22:16:48.768Z,114.00
2018-03-03T22:19:16.292Z,113.53
2018-03-03T22:21:44.593Z,109.85
2018-03-03T22:24:12.157Z,107.65
2018-03-03T22:26:39.725Z,105.12
2018-03-03T22:29:07.297Z,102.25
2018-03-03T22:31:35.009Z,120.05
2018-03-03T22:34:03.346Z,118.22
2018-03-03T22:36:31.004Z,95.97
2018-03-03T22:38:58.550Z,110.63
2018-03-03T22:41:26.148Z,106.82
2018-03-03T22:43:53.750Z,112.62
2018-03-03T22:46:21.339Z,108.55
2018-03-03T22:48:49.005Z,118.82
2018-03-03T22:51:17.390Z,102.97
2018-03-03T22:53:44.996Z,98.55
2018-03-03T22:56:12.572Z,97.53
2018-03-03T22:58:40.168Z,108.28
2018-03-03T23:01:07.821Z,120.15
2018-03-03T23:03:35.373Z,107.82
2018-03-03T23:06:02.942Z,102.95
2018-03-03T23:08:30.535Z,99.82
2018-03-03T23:10:58.422Z,109.95
2018-03-03T23:13:26.011Z,125.50
2018-03-03T23:15:53.605Z,102.50
2018-03-03T23:18:21.167Z,113.45
2018-03-03T23:20:48.805Z,103.70
2018-03-03T23:23:16.330Z,103.78
2018-03-03T23:25:43.938Z,114.12
2018-03-03T23:28:11.512Z,112.60
2018-03-03T23:30:39.075Z,123.28
2018-03-03T23:33:06.791Z,121.65
2018-03-03T23:35:34.390Z,115.47
2018-03-03T23:38:02.753Z,116.95
2018-03-03T23:40:30.310Z,103.25
2018-03-03T23:42:57.880Z,115.30
2018-03-03T23:45:25.454Z,116.40
2018-03-03T23:47:53.010Z,106.87
2018-03-03T23:50:20.633Z,98.07
2018-03-03T23:52:48.459Z,101.90
2018-03-03T23:55:16.810Z,119.90
2018-03-03T23:57:44.369Z,111.57
